Time;durP1;ratioP1;P1;durP2;ratioP2;P2;SDS_P1;SDS_P2;PMS_P1;PMS_P2;Temp;Humidity;BMP_temperature;BMP_pressure;BME280_temperature;BME280_humidity;BME280_pressure;Samples;Min_cycle;Max_cycle;Signal;HPM_P1;HPM_P2
2023/08/12 00:04:53;;;;;;;5.87;5.00;;;23.20;93.80;;;;;;10363245;28;20969;-67
2023/08/12 00:09:55;;;;;;;6.43;5.10;;;23.20;93.90;;;;;;10363778;28;20400;-68
2023/08/12 00:14:56;;;;;;;6.83;4.93;;;23.20;93.90;;;;;;10361690;28;20440;-68
2023/08/12 00:19:57;;;;;;;6.30;4.90;;;23.20;93.90;;;;;;10362783;28;20539;-66
2023/08/12 00:24:57;;;;;;;6.10;5.27;;;23.20;94.00;;;;;;10362304;28;20732;-66
2023/08/12 00:29:58;;;;;;;5.93;5.20;;;23.10;93.90;;;;;;10361349;28;20484;-63
2023/08/12 00:34:59;;;;;;;6.43;5.13;;;23.10;93.90;;;;;;10362002;28;20408;-66
2023/08/12 00:39:59;;;;;;;5.70;5.10;;;23.10;94.00;;;;;;10368437;28;20833;-67
2023/08/12 00:45:00;;;;;;;6.35;5.00;;;23.10;94.00;;;;;;10352101;28;20405;-67
2023/08/12 00:50:01;;;;;;;6.10;5.50;;;23.00;94.00;;;;;;10351215;28;20416;-67
2023/08/12 00:55:03;;;;;;;6.57;5.80;;;23.10;94.00;;;;;;10361409;28;20896;-66
2023/08/12 01:00:04;;;;;;;6.78;5.50;;;23.00;94.00;;;;;;10344902;28;20416;-68
2023/08/12 01:05:05;;;;;;;6.00;5.38;;;23.00;94.10;;;;;;10363009;28;20845;-68
2023/08/12 01:10:06;;;;;;;6.53;5.00;;;23.00;94.20;;;;;;10364082;28;20405;-65
2023/08/12 01:15:25;;;;;;;5.95;5.30;;;23.00;94.10;;;;;;10367235;28;20454;-68
2023/08/12 01:20:26;;;;;;;6.53;5.80;;;23.00;94.20;;;;;;10358316;28;20419;-68
2023/08/12 01:25:31;;;;;;;6.47;5.30;;;22.90;94.20;;;;;;10348419;28;20924;-68
2023/08/12 01:30:35;;;;;;;6.23;5.53;;;23.00;94.20;;;;;;10352020;28;20493;-67
2023/08/12 01:35:49;;;;;;;6.80;5.40;;;22.90;94.20;;;;;;10360266;28;20418;-68
2023/08/12 01:40:52;;;;;;;5.80;5.20;;;22.90;94.20;;;;;;10368330;28;20404;-68
2023/08/12 01:45:52;;;;;;;6.63;5.40;;;22.90;94.30;;;;;;10352958;28;20396;-67
2023/08/12 01:50:53;;;;;;;5.97;5.10;;;22.90;94.30;;;;;;10359095;28;20424;-68
2023/08/12 01:55:54;;;;;;;6.68;5.45;;;22.80;94.30;;;;;;10360066;28;20491;-68
2023/08/12 02:00:55;;;;;;;5.90;5.30;;;22.90;94.40;;;;;;10344316;28;20409;-67
2023/08/12 02:05:55;;;;;;;6.80;5.35;;;22.80;94.40;;;;;;10360801;28;20419;-67
2023/08/12 02:10:56;;;;;;;6.47;5.03;;;22.80;94.40;;;;;;10363288;28;20400;-67
2023/08/12 02:15:57;;;;;;;6.60;5.28;;;22.80;94.40;;;;;;10361105;28;20916;-68
2023/08/12 02:20:57;;;;;;;5.82;5.15;;;22.80;94.40;;;;;;10358771;28;20761;-68
2023/08/12 02:25:58;;;;;;;6.65;5.32;;;22.70;94.40;;;;;;10361051;28;20955;-68
2023/08/12 02:30:59;;;;;;;6.07;5.05;;;22.70;94.40;;;;;;10357856;28;20405;-67
2023/08/12 02:35:59;;;;;;;6.57;5.18;;;22.70;94.50;;;;;;10354157;28;20480;-68
2023/08/12 02:41:00;;;;;;;6.33;5.40;;;22.70;94.50;;;;;;10357194;28;20765;-68
2023/08/12 02:46:01;;;;;;;5.80;5.20;;;22.70;94.50;;;;;;10356705;28;20404;-67
2023/08/12 02:51:01;;;;;;;7.20;5.60;;;22.70;94.60;;;;;;10360330;28;20429;-68
2023/08/12 02:56:02;;;;;;;6.67;5.53;;;22.60;94.60;;;;;;10359205;28;20415;-65
2023/08/12 03:01:04;;;;;;;6.60;5.50;;;22.60;94.60;;;;;;10360487;28;20427;-68
2023/08/12 03:06:05;;;;;;;6.40;5.57;;;22.60;94.60;;;;;;10358987;28;20428;-67
2023/08/12 03:11:06;;;;;;;7.72;5.72;;;22.60;94.70;;;;;;10357460;28;20902;-68
2023/08/12 03:16:12;;;;;;;6.33;5.50;;;22.60;94.70;;;;;;10355865;28;20405;-68
2023/08/12 03:21:13;;;;;;;7.13;5.57;;;22.60;94.70;;;;;;10358405;28;20408;-66
2023/08/12 03:26:14;;;;;;;7.10;5.50;;;22.60;94.70;;;;;;10359588;28;20412;-67
2023/08/12 03:31:14;;;;;;;7.05;5.80;;;22.60;94.70;;;;;;10362298;28;20416;-67
2023/08/12 03:36:15;;;;;;;6.53;5.50;;;22.60;94.80;;;;;;10365555;28;20487;-68
2023/08/12 03:41:16;;;;;;;6.70;5.80;;;22.50;94.80;;;;;;10364750;28;20439;-68
2023/08/12 03:46:17;;;;;;;7.10;5.60;;;22.50;94.80;;;;;;10366163;28;20487;-68
2023/08/12 03:51:17;;;;;;;7.28;5.82;;;22.50;95.10;;;;;;10361734;28;20420;-67
2023/08/12 03:56:18;;;;;;;7.40;6.13;;;22.50;94.80;;;;;;10363813;28;20427;-68
2023/08/12 04:01:19;;;;;;;7.00;6.07;;;22.50;94.80;;;;;;10362256;28;20839;-68
2023/08/12 04:06:19;;;;;;;7.37;5.80;;;22.50;94.90;;;;;;10360473;28;20401;-67
2023/08/12 04:11:20;;;;;;;7.20;5.80;;;22.50;94.90;;;;;;10362572;28;20496;-68
2023/08/12 04:16:21;;;;;;;8.47;6.67;;;22.50;94.90;;;;;;10361319;28;20842;-67
2023/08/12 04:21:22;;;;;;;8.50;6.97;;;22.50;94.90;;;;;;10362362;28;20919;-66
2023/08/12 04:26:22;;;;;;;8.35;6.60;;;22.50;95.00;;;;;;10355011;28;20447;-68
2023/08/12 04:31:23;;;;;;;7.43;6.18;;;22.50;95.00;;;;;;10369737;28;20408;-66
2023/08/12 04:36:24;;;;;;;8.13;6.70;;;22.40;94.90;;;;;;10361574;28;20411;-67
2023/08/12 04:41:24;;;;;;;7.97;6.30;;;22.40;94.90;;;;;;10365240;28;20417;-67
2023/08/12 04:46:25;;;;;;;7.30;6.23;;;23.00;95.10;;;;;;10370078;28;20467;-67
2023/08/12 04:51:25;;;;;;;7.30;6.13;;;22.40;95.00;;;;;;10365740;28;20470;-67
2023/08/12 04:56:28;;;;;;;7.00;6.30;;;22.50;95.00;;;;;;10369639;28;20772;-67
2023/08/12 05:01:29;;;;;;;7.60;6.40;;;22.40;95.00;;;;;;10371132;28;20424;-68
2023/08/12 05:06:30;;;;;;;7.47;6.13;;;22.40;95.00;;;;;;10351081;28;20408;-68
2023/08/12 05:11:30;;;;;;;8.10;6.37;;;22.40;95.00;;;;;;10344915;28;20412;-68
2023/08/12 05:16:31;;;;;;;6.57;5.60;;;22.40;95.00;;;;;;10349863;28;20413;-67
2023/08/12 05:21:31;;;;;;;7.60;6.18;;;22.40;95.20;;;;;;10362139;28;20770;-66
2023/08/12 05:26:33;;;;;;;7.40;6.30;;;22.40;95.00;;;;;;10354427;28;20401;-67
2023/08/12 05:31:34;;;;;;;7.25;6.13;;;22.40;94.90;;;;;;10363080;28;20804;-68
2023/08/12 05:36:35;;;;;;;7.70;6.80;;;22.40;94.90;;;;;;10363705;28;20413;-68
2023/08/12 05:41:36;;;;;;;7.07;6.37;;;22.40;94.90;;;;;;10368223;28;21170;-68
2023/08/12 05:46:37;;;;;;;7.07;6.33;;;22.40;94.90;;;;;;10372122;28;20403;-68
2023/08/12 05:51:38;;;;;;;8.00;6.30;;;22.40;94.80;;;;;;10359409;28;20943;-68
2023/08/12 05:56:39;;;;;;;7.65;6.60;;;22.40;94.80;;;;;;10369294;28;20436;-67
2023/08/12 06:01:39;;;;;;;8.38;6.78;;;22.40;94.90;;;;;;10353979;28;20676;-67
2023/08/12 06:06:40;;;;;;;8.38;7.20;;;22.40;94.90;;;;;;10352780;28;20419;-66
2023/08/12 06:11:40;;;;;;;9.07;6.70;;;22.60;95.00;;;;;;10360698;28;20413;-68
2023/08/12 06:16:41;;;;;;;9.57;7.20;;;22.40;94.90;;;;;;10364823;28;20405;-68
2023/08/12 06:21:41;;;;;;;8.90;6.70;;;22.40;95.00;;;;;;10358633;28;20409;-67
2023/08/12 06:26:42;;;;;;;9.10;7.33;;;22.30;95.00;;;;;;10367190;28;20396;-68
2023/08/12 06:31:43;;;;;;;9.70;7.47;;;22.40;95.00;;;;;;10343027;28;20412;-67
2023/08/12 06:36:43;;;;;;;9.23;7.05;;;22.40;95.00;;;;;;10358286;28;20778;-68
2023/08/12 06:41:44;;;;;;;9.50;7.33;;;22.40;95.00;;;;;;10364033;28;20417;-67
2023/08/12 06:46:44;;;;;;;8.53;7.17;;;22.40;95.00;;;;;;10347053;28;20915;-67
2023/08/12 06:51:45;;;;;;;10.30;7.77;;;22.40;95.00;;;;;;10359020;28;20420;-68
2023/08/12 06:56:46;;;;;;;9.80;7.50;;;22.40;95.10;;;;;;10359468;28;21097;-68
2023/08/12 07:01:46;;;;;;;8.93;7.33;;;22.40;95.10;;;;;;10361915;28;20417;-68
2023/08/12 07:06:47;;;;;;;9.07;7.70;;;22.30;95.10;;;;;;10341967;28;20804;-68
2023/08/12 07:11:48;;;;;;;8.95;7.53;;;22.40;95.10;;;;;;10361594;28;20896;-67
2023/08/12 07:16:48;;;;;;;9.27;7.43;;;22.40;95.10;;;;;;10359893;28;20440;-68
2023/08/12 07:21:49;;;;;;;10.77;8.43;;;22.30;95.10;;;;;;10343755;28;20555;-67
2023/08/12 07:26:50;;;;;;;9.80;8.02;;;22.40;95.20;;;;;;10357235;28;20811;-68
2023/08/12 07:31:52;;;;;;;10.35;8.68;;;22.40;95.20;;;;;;10356070;28;20424;-68
2023/08/12 07:36:53;;;;;;;10.70;8.52;;;22.40;95.20;;;;;;10349496;28;20416;-69
2023/08/12 07:41:53;;;;;;;9.43;8.13;;;22.40;95.20;;;;;;10358006;28;20422;-68
2023/08/12 07:46:54;;;;;;;9.53;8.50;;;22.40;95.30;;;;;;10356393;28;20430;-68
2023/08/12 07:51:55;;;;;;;9.77;8.53;;;22.40;95.30;;;;;;10355295;28;20426;-69
2023/08/12 07:56:55;;;;;;;10.67;8.60;;;22.30;95.30;;;;;;10357903;28;20441;-67
2023/08/12 08:01:56;;;;;;;10.50;8.90;;;22.30;95.30;;;;;;10356797;28;20455;-68
2023/08/12 08:06:57;;;;;;;12.33;9.97;;;22.30;95.40;;;;;;10354249;28;20617;-67
2023/08/12 08:11:57;;;;;;;10.80;9.27;;;22.40;95.40;;;;;;10353965;28;20419;-68
2023/08/12 08:16:58;;;;;;;11.60;10.13;;;22.30;95.50;;;;;;10363672;28;20683;-68
2023/08/12 08:21:58;;;;;;;18.83;15.20;;;22.30;95.60;;;;;;10360331;28;20427;-68
2023/08/12 08:26:59;;;;;;;12.23;10.30;;;22.30;95.70;;;;;;10351042;28;20935;-67
2023/08/12 08:32:00;;;;;;;13.13;10.63;;;22.30;95.70;;;;;;10359752;28;20413;-68
2023/08/12 08:37:00;;;;;;;14.83;12.43;;;22.30;95.80;;;;;;10361131;28;20408;-68
2023/08/12 08:42:04;;;;;;;13.47;11.70;;;22.30;96.00;;;;;;10363891;28;20416;-67
2023/08/12 08:47:06;;;;;;;13.50;11.43;;;22.30;95.80;;;;;;10353236;28;20401;-67
2023/08/12 08:52:07;;;;;;;15.48;13.07;;;22.30;95.70;;;;;;10362613;28;20448;-67
2023/08/12 08:57:08;;;;;;;14.07;11.83;;;22.30;95.70;;;;;;10347613;28;20424;-67
2023/08/12 09:02:19;;;;;;;14.95;12.63;;;22.30;95.70;;;;;;10362438;28;21001;-67
2023/08/12 09:07:20;;;;;;;14.23;12.67;;;22.20;95.70;;;;;;10362089;28;20405;-67
2023/08/12 09:12:22;;;;;;;13.93;12.30;;;22.30;95.70;;;;;;10348516;28;20432;-67
2023/08/12 09:17:23;;;;;;;17.05;13.68;;;22.30;95.70;;;;;;10362338;28;20420;-67
2023/08/12 09:22:25;;;;;;;16.60;13.60;;;22.30;95.90;;;;;;10359743;28;20424;-66
2023/08/12 09:27:26;;;;;;;16.48;13.60;;;22.30;96.00;;;;;;10356755;28;20985;-67
2023/08/12 09:32:28;;;;;;;18.23;14.87;;;22.20;95.90;;;;;;10359275;28;20571;-70
2023/08/12 09:37:29;;;;;;;14.07;12.50;;;22.30;96.00;;;;;;10357760;28;20416;-66
2023/08/12 09:42:29;;;;;;;15.33;12.80;;;22.20;96.00;;;;;;10339573;28;20408;-66
2023/08/12 09:47:30;;;;;;;15.80;12.90;;;22.10;95.90;;;;;;10359005;28;20397;-66
2023/08/12 09:52:32;;;;;;;14.82;12.55;;;22.20;96.20;;;;;;10359264;28;21135;-67
2023/08/12 09:57:36;;;;;;;14.23;12.60;;;22.20;96.10;;;;;;10358158;28;20404;-67
2023/08/12 10:02:39;;;;;;;13.73;12.03;;;22.20;96.10;;;;;;10342066;28;20791;-66
2023/08/12 10:07:40;;;;;;;13.05;11.45;;;22.30;96.60;;;;;;10358374;28;20964;-67
2023/08/12 10:12:41;;;;;;;13.95;11.93;;;22.20;96.20;;;;;;10357367;28;20417;-67
2023/08/12 10:17:43;;;;;;;13.27;10.63;;;22.30;96.30;;;;;;10356847;28;20416;-67
2023/08/12 10:22:44;;;;;;;13.48;11.10;;;22.30;96.20;;;;;;10356050;28;20420;-67
2023/08/12 10:27:45;;;;;;;12.07;10.48;;;22.40;96.20;;;;;;10353925;28;20417;-67
2023/08/12 10:32:47;;;;;;;11.32;10.10;;;22.30;96.20;;;;;;10352379;28;20423;-66
2023/08/12 10:37:53;;;;;;;13.07;10.90;;;22.30;96.30;;;;;;10354639;28;20485;-66
2023/08/12 10:42:53;;;;;;;10.88;9.70;;;22.30;96.60;;;;;;10354256;28;20886;-67
2023/08/12 10:48:15;;;;;;;12.07;10.87;;;22.30;96.20;;;;;;10356542;28;20401;-67
2023/08/12 10:53:29;;;;;;;11.33;9.83;;;22.40;96.10;;;;;;10358545;28;20422;-67
2023/08/12 10:58:44;;;;;;;11.07;9.88;;;22.40;96.00;;;;;;10360175;28;20920;-67
2023/08/12 11:03:47;;;;;;;10.63;9.32;;;22.40;95.80;;;;;;10354736;28;21098;-68
2023/08/12 11:08:52;;;;;;;10.45;9.30;;;22.40;95.80;;;;;;10359620;28;20412;-66
2023/08/12 11:13:55;;;;;;;11.50;9.30;;;22.50;95.80;;;;;;10341460;28;20423;-67
2023/08/12 11:18:57;;;;;;;10.20;8.90;;;22.50;95.70;;;;;;10355526;28;20511;-66
2023/08/12 11:23:59;;;;;;;11.40;10.10;;;22.60;95.70;;;;;;10358161;28;20430;-66
2023/08/12 11:29:00;;;;;;;10.45;9.35;;;22.50;95.70;;;;;;10355423;28;20403;-66
2023/08/12 11:34:00;;;;;;;10.43;9.23;;;22.50;95.80;;;;;;10353167;28;20410;-66
2023/08/12 11:39:01;;;;;;;10.93;9.05;;;22.60;96.00;;;;;;10357273;28;20416;-66
2023/08/12 11:44:04;;;;;;;10.90;9.30;;;22.60;96.00;;;;;;10358454;28;20405;-66
2023/08/12 11:49:05;;;;;;;6.50;5.18;;;22.60;95.80;;;;;;10353215;28;20420;-67
2023/08/12 11:54:05;;;;;;;5.07;3.00;;;22.60;96.90;;;;;;10346168;28;20420;-68
2023/08/12 11:59:06;;;;;;;5.13;2.60;;;22.80;98.20;;;;;;10362859;28;20892;-67
2023/08/12 12:04:10;;;;;;;5.78;1.90;;;22.90;98.10;;;;;;10364626;28;20409;-69
2023/08/12 12:09:11;;;;;;;5.47;2.22;;;22.90;97.70;;;;;;10361234;28;20915;-67
2023/08/12 12:14:12;;;;;;;5.53;2.13;;;22.80;97.50;;;;;;10362136;28;20428;-66
2023/08/12 12:19:20;;;;;;;3.90;1.60;;;22.80;97.50;;;;;;10359462;28;20428;-67
2023/08/12 12:24:21;;;;;;;5.10;1.83;;;22.80;97.50;;;;;;10359502;28;20922;-67
2023/08/12 12:29:22;;;;;;;4.50;1.70;;;22.90;97.30;;;;;;10346389;28;20418;-67
2023/08/12 12:34:23;;;;;;;5.72;1.67;;;23.00;97.00;;;;;;10359890;28;21041;-67
2023/08/12 12:39:23;;;;;;;4.60;1.50;;;23.00;97.90;;;;;;10363042;28;20421;-68
2023/08/12 12:44:24;;;;;;;5.97;1.73;;;23.00;97.20;;;;;;10362812;28;20415;-67
2023/08/12 12:49:25;;;;;;;5.80;1.90;;;22.90;97.10;;;;;;10345976;28;20409;-67
2023/08/12 12:54:25;;;;;;;6.37;1.80;;;22.90;97.20;;;;;;10361876;28;20409;-67
2023/08/12 12:59:26;;;;;;;5.87;2.00;;;22.90;96.70;;;;;;10345305;28;20474;-67
2023/08/12 13:04:27;;;;;;;6.77;1.70;;;23.10;96.80;;;;;;10358539;28;20795;-68
2023/08/12 13:09:27;;;;;;;8.50;2.07;;;23.20;96.50;;;;;;10342611;28;20438;-70
2023/08/12 13:14:30;;;;;;;7.93;2.00;;;23.30;95.90;;;;;;10358666;28;20451;-70
2023/08/12 13:19:30;;;;;;;9.13;2.10;;;23.40;95.60;;;;;;10358595;28;20420;-70
2023/08/12 13:24:31;;;;;;;6.05;1.80;;;23.60;95.60;;;;;;10356567;28;20923;-70
2023/08/12 13:29:32;;;;;;;7.43;2.17;;;23.70;95.60;;;;;;10357965;28;20404;-69
2023/08/12 13:34:32;;;;;;;6.53;1.70;;;23.90;95.60;;;;;;10357864;28;20408;-68
2023/08/12 13:39:33;;;;;;;6.30;1.80;;;24.10;94.70;;;;;;10359731;28;20417;-70
2023/08/12 13:44:33;;;;;;;6.27;1.80;;;24.20;93.40;;;;;;10360013;28;20393;-70
2023/08/12 13:49:34;;;;;;;5.63;1.70;;;24.40;93.90;;;;;;10359308;28;20423;-68
2023/08/12 13:54:35;;;;;;;7.03;1.80;;;24.60;92.90;;;;;;10359111;28;20415;-68
2023/08/12 13:59:35;;;;;;;5.47;1.80;;;24.50;92.90;;;;;;10354531;28;20424;-68
2023/08/12 14:04:37;;;;;;;7.73;1.87;;;24.70;92.20;;;;;;10358066;28;20416;-69
2023/08/12 14:09:37;;;;;;;7.20;1.95;;;24.90;91.60;;;;;;10357253;28;20426;-67
2023/08/12 14:14:39;;;;;;;6.88;1.90;;;25.00;91.20;;;;;;10356405;28;20928;-67
2023/08/12 14:19:41;;;;;;;8.93;2.00;;;25.20;91.80;;;;;;10357547;28;20742;-67
2023/08/12 14:24:43;;;;;;;8.60;2.08;;;25.40;91.10;;;;;;10355802;28;20412;-68
2023/08/12 14:29:45;;;;;;;8.63;2.33;;;25.30;89.10;;;;;;10342929;28;20420;-67
2023/08/12 14:34:46;;;;;;;6.70;1.70;;;25.20;87.80;;;;;;10360040;28;20479;-67
2023/08/12 14:39:47;;;;;;;8.40;2.00;;;25.30;85.00;;;;;;10352969;28;20990;-67
2023/08/12 14:44:47;;;;;;;8.23;2.00;;;25.40;86.70;;;;;;10348094;28;20525;-68
2023/08/12 14:49:49;;;;;;;8.90;2.07;;;25.50;87.60;;;;;;10357230;28;20425;-66
2023/08/12 14:54:50;;;;;;;6.50;1.98;;;25.70;86.80;;;;;;10344947;28;20440;-66
2023/08/12 14:59:51;;;;;;;7.13;1.97;;;25.80;83.70;;;;;;10359285;28;20551;-68
2023/08/12 15:04:53;;;;;;;6.20;2.00;;;25.90;85.20;;;;;;10325532;28;20834;-68
2023/08/12 15:09:54;;;;;;;6.13;1.88;;;26.00;83.50;;;;;;10354830;28;20414;-67
2023/08/12 15:14:55;;;;;;;9.23;2.00;;;26.10;83.30;;;;;;10355662;28;20417;-66
2023/08/12 15:19:56;;;;;;;5.55;2.00;;;26.20;83.50;;;;;;10356903;28;20425;-68
2023/08/12 15:24:57;;;;;;;6.45;2.10;;;26.20;82.90;;;;;;10360247;28;20400;-66
2023/08/12 15:29:57;;;;;;;8.13;2.10;;;26.40;82.50;;;;;;10351205;28;20455;-67
2023/08/12 15:34:59;;;;;;;7.37;2.00;;;26.40;81.20;;;;;;10363168;28;20819;-66
2023/08/12 15:40:00;;;;;;;5.73;1.73;;;26.50;80.70;;;;;;10362895;28;20414;-67
2023/08/12 15:45:02;;;;;;;6.10;1.97;;;26.50;82.30;;;;;;10364147;28;20404;-66
2023/08/12 15:50:04;;;;;;;5.28;2.13;;;26.50;80.10;;;;;;10365762;28;20426;-66
2023/08/12 15:55:05;;;;;;;7.50;2.10;;;26.60;81.60;;;;;;10345249;28;20405;-68
2023/08/12 16:00:07;;;;;;;6.75;2.10;;;26.50;81.00;;;;;;10369567;28;20826;-65
2023/08/12 16:05:08;;;;;;;6.35;2.10;;;26.20;79.70;;;;;;10368593;28;20843;-66
2023/08/12 16:10:09;;;;;;;7.43;1.80;;;26.00;80.30;;;;;;10363762;28;20467;-67
2023/08/12 16:15:10;;;;;;;9.98;2.92;;;25.90;80.90;;;;;;10366750;28;20497;-66
2023/08/12 16:20:12;;;;;;;31.63;20.20;;;25.70;80.30;;;;;;10368938;28;20458;-66
2023/08/12 16:25:12;;;;;;;19.30;9.63;;;25.40;80.30;;;;;;10363635;28;20816;-68
2023/08/12 16:30:13;;;;;;;17.30;7.63;;;25.20;81.20;;;;;;10364270;28;20405;-65
2023/08/12 16:35:14;;;;;;;15.70;7.97;;;25.00;80.90;;;;;;10368117;28;20419;-65
2023/08/12 16:40:14;;;;;;;17.63;7.93;;;25.00;82.70;;;;;;10364599;28;20400;-65
2023/08/12 16:45:15;;;;;;;13.60;7.60;;;25.10;84.70;;;;;;10368613;28;20414;-67
2023/08/12 16:50:16;;;;;;;12.32;7.10;;;25.20;85.60;;;;;;10364378;28;20412;-65
2023/08/12 16:55:17;;;;;;;14.88;6.93;;;25.20;86.10;;;;;;10366891;28;20892;-65
2023/08/12 17:00:18;;;;;;;13.90;6.50;;;25.30;86.70;;;;;;10364786;28;20483;-65
2023/08/12 17:05:19;;;;;;;14.27;6.57;;;25.30;87.00;;;;;;10369776;28;20429;-65
2023/08/12 17:10:19;;;;;;;11.00;6.30;;;25.30;87.20;;;;;;10367045;28;20912;-64
2023/08/12 17:15:21;;;;;;;9.65;5.25;;;25.30;87.70;;;;;;10362889;28;20405;-65
2023/08/12 17:20:22;;;;;;;9.07;5.50;;;25.30;87.90;;;;;;10362513;28;20541;-65
2023/08/12 17:25:22;;;;;;;9.17;4.87;;;25.20;88.20;;;;;;10372041;28;20966;-64
2023/08/12 17:30:23;;;;;;;8.63;5.00;;;25.20;88.50;;;;;;10370064;28;20416;-63
2023/08/12 17:35:23;;;;;;;11.02;5.25;;;25.20;88.40;;;;;;10349498;28;20397;-65
2023/08/12 17:40:24;;;;;;;9.80;4.67;;;25.20;89.00;;;;;;10365731;28;20422;-64
2023/08/12 17:45:25;;;;;;;9.20;4.80;;;25.10;88.60;;;;;;10349397;28;20496;-66
2023/08/12 17:50:26;;;;;;;10.33;4.90;;;25.10;89.50;;;;;;10360108;28;20892;-63
2023/08/12 17:55:27;;;;;;;8.38;4.63;;;25.10;89.90;;;;;;10364808;28;20436;-67
2023/08/12 18:00:28;;;;;;;8.53;4.80;;;25.00;89.70;;;;;;10362585;28;20484;-66
2023/08/12 18:05:28;;;;;;;7.73;4.37;;;25.00;89.90;;;;;;10366479;28;20400;-67
2023/08/12 18:10:29;;;;;;;7.53;4.60;;;25.00;90.10;;;;;;10365989;28;20912;-67
2023/08/12 18:15:30;;;;;;;8.87;4.90;;;24.90;90.10;;;;;;10362856;28;20790;-67
2023/08/12 18:20:30;;;;;;;6.65;3.78;;;24.90;90.30;;;;;;10361381;28;20482;-67
2023/08/12 18:25:31;;;;;;;8.85;5.47;;;24.90;90.00;;;;;;10364441;28;20398;-67
2023/08/12 18:30:33;;;;;;;7.63;4.20;;;24.90;90.50;;;;;;10363173;28;20410;-66
2023/08/12 18:35:34;;;;;;;8.25;5.13;;;24.80;90.50;;;;;;10348634;28;20789;-66
2023/08/12 18:40:35;;;;;;;6.28;4.22;;;24.80;90.80;;;;;;10365352;28;20407;-66
2023/08/12 18:45:37;;;;;;;8.40;4.37;;;24.70;90.80;;;;;;10362427;28;20405;-66
2023/08/12 18:50:38;;;;;;;6.60;3.80;;;24.70;90.60;;;;;;10363410;28;20419;-66
2023/08/12 18:55:38;;;;;;;6.63;4.40;;;24.60;90.80;;;;;;10361386;28;20402;-65
2023/08/12 19:00:39;;;;;;;7.80;4.40;;;24.60;90.80;;;;;;10363895;28;20427;-65
2023/08/12 19:05:43;;;;;;;7.87;4.60;;;24.60;91.00;;;;;;10362260;28;20388;-66
2023/08/12 19:10:44;;;;;;;7.30;4.45;;;24.50;90.90;;;;;;10351382;28;20413;-65
2023/08/12 19:15:44;;;;;;;9.18;4.30;;;24.40;91.00;;;;;;10362294;28;20768;-66
2023/08/12 19:20:45;;;;;;;7.43;4.50;;;24.40;91.00;;;;;;10354448;28;20518;-66
2023/08/12 19:25:46;;;;;;;8.77;4.40;;;24.40;91.10;;;;;;10358842;28;20447;-66
2023/08/12 19:30:50;;;;;;;7.40;4.10;;;24.30;91.10;;;;;;10361362;28;20392;-65
2023/08/12 19:35:50;;;;;;;8.00;4.40;;;24.30;91.20;;;;;;10353050;28;20436;-65
2023/08/12 19:40:51;;;;;;;7.95;4.35;;;24.20;91.20;;;;;;10353492;28;20496;-66
2023/08/12 19:45:52;;;;;;;6.78;3.60;;;24.20;91.30;;;;;;10360509;28;20412;-66
2023/08/12 19:50:53;;;;;;;5.68;3.83;;;24.10;91.20;;;;;;10344190;28;20416;-63
2023/08/12 19:55:54;;;;;;;6.40;3.42;;;24.10;91.30;;;;;;10356948;28;20404;-65
2023/08/12 20:00:55;;;;;;;5.23;3.50;;;24.10;91.20;;;;;;10359172;28;20461;-65
2023/08/12 20:05:55;;;;;;;6.50;3.50;;;24.00;91.30;;;;;;10357877;28;20411;-66
2023/08/12 20:10:56;;;;;;;7.47;4.00;;;24.00;91.30;;;;;;10356862;28;20470;-66
2023/08/12 20:16:00;;;;;;;6.30;3.60;;;23.90;91.40;;;;;;10366496;28;20478;-64
2023/08/12 20:21:01;;;;;;;7.15;3.67;;;23.90;91.30;;;;;;10350326;28;20919;-65
2023/08/12 20:26:02;;;;;;;5.95;3.22;;;23.80;91.30;;;;;;10349076;28;20423;-66
2023/08/12 20:31:02;;;;;;;6.38;3.40;;;23.80;91.40;;;;;;10363713;28;20484;-66
2023/08/12 20:36:03;;;;;;;5.13;3.47;;;23.80;91.30;;;;;;10364961;28;20404;-65
2023/08/12 20:41:04;;;;;;;6.22;3.67;;;23.70;91.30;;;;;;10364003;28;20807;-65
2023/08/12 20:46:05;;;;;;;7.73;3.87;;;23.70;91.00;;;;;;10350946;28;20408;-64
2023/08/12 20:51:05;;;;;;;7.13;3.87;;;23.70;91.20;;;;;;10365235;28;20436;-65
2023/08/12 20:56:06;;;;;;;5.83;3.50;;;23.70;91.10;;;;;;10346812;28;20415;-65
2023/08/12 21:01:07;;;;;;;7.10;3.53;;;23.60;91.10;;;;;;10363536;28;20413;-65
2023/08/12 21:06:09;;;;;;;6.20;3.88;;;23.60;91.00;;;;;;10363243;28;20429;-66
2023/08/12 21:11:11;;;;;;;6.93;4.00;;;23.50;91.10;;;;;;10362489;28;20804;-65
2023/08/12 21:16:11;;;;;;;7.20;4.30;;;23.50;91.10;;;;;;10360084;28;20459;-65
2023/08/12 21:21:12;;;;;;;8.60;4.40;;;23.40;90.90;;;;;;10346154;28;20753;-64
2023/08/12 21:26:13;;;;;;;7.77;4.73;;;23.40;90.90;;;;;;10361374;28;20400;-65
2023/08/12 21:31:13;;;;;;;7.70;4.77;;;23.40;91.00;;;;;;10363172;28;20487;-64
2023/08/12 21:36:14;;;;;;;8.07;5.10;;;23.30;90.90;;;;;;10362197;28;20979;-65
2023/08/12 21:41:15;;;;;;;8.07;4.87;;;23.30;90.90;;;;;;10356628;28;20416;-64
2023/08/12 21:46:15;;;;;;;10.20;4.90;;;23.30;90.80;;;;;;10359394;28;20400;-64
2023/08/12 21:51:22;;;;;;;7.45;4.80;;;23.20;90.90;;;;;;10359299;28;20680;-66
2023/08/12 21:56:22;;;;;;;7.57;4.60;;;23.20;90.80;;;;;;10361162;28;20664;-66
2023/08/12 22:01:23;;;;;;;8.50;4.90;;;23.20;90.80;;;;;;10356942;28;20860;-63
2023/08/12 22:06:23;;;;;;;8.80;4.43;;;23.20;90.70;;;;;;10356782;28;20495;-65
2023/08/12 22:11:27;;;;;;;10.30;4.30;;;23.10;90.50;;;;;;10343957;28;20433;-65
2023/08/12 22:16:27;;;;;;;8.85;4.90;;;23.10;90.60;;;;;;10343853;28;20411;-65
2023/08/12 22:21:28;;;;;;;7.87;4.90;;;23.10;90.80;;;;;;10353724;28;20718;-65
2023/08/12 22:26:29;;;;;;;9.43;4.37;;;23.00;90.80;;;;;;10342296;28;20451;-66
2023/08/12 22:31:29;;;;;;;6.83;4.00;;;23.00;90.80;;;;;;10355009;28;20786;-64
2023/08/12 22:36:31;;;;;;;7.67;4.60;;;22.90;90.80;;;;;;10357138;28;20397;-65
2023/08/12 22:41:32;;;;;;;7.28;3.97;;;22.90;91.10;;;;;;10354380;28;20448;-66
2023/08/12 22:46:33;;;;;;;8.67;4.00;;;22.90;90.90;;;;;;10353554;28;20411;-65
2023/08/12 22:51:35;;;;;;;7.17;4.17;;;22.90;90.90;;;;;;10355007;28;20416;-64
2023/08/12 22:56:37;;;;;;;6.93;3.90;;;22.80;90.90;;;;;;10354346;28;20447;-65
2023/08/12 23:01:38;;;;;;;7.00;4.13;;;22.80;90.80;;;;;;10353464;28;20932;-66
2023/08/12 23:06:38;;;;;;;6.50;3.80;;;22.80;90.80;;;;;;10352943;28;20400;-65
2023/08/12 23:11:39;;;;;;;6.30;3.75;;;22.70;90.70;;;;;;10351362;28;20408;-65
2023/08/12 23:16:39;;;;;;;6.30;3.30;;;22.70;90.70;;;;;;10352905;28;20408;-64
2023/08/12 23:21:40;;;;;;;6.33;3.37;;;22.70;90.70;;;;;;10355057;28;20416;-65
2023/08/12 23:26:41;;;;;;;8.03;4.00;;;22.70;90.70;;;;;;10356614;28;20522;-65
2023/08/12 23:31:41;;;;;;;7.80;3.53;;;22.60;90.60;;;;;;10354525;28;20491;-65
2023/08/12 23:36:42;;;;;;;7.33;4.00;;;22.60;90.60;;;;;;10354267;28;20752;-66
2023/08/12 23:41:43;;;;;;;7.60;3.97;;;22.60;90.70;;;;;;10343294;28;20478;-66
2023/08/12 23:46:44;;;;;;;8.15;3.30;;;22.60;90.70;;;;;;10359131;28;20697;-65
2023/08/12 23:51:45;;;;;;;6.00;3.40;;;22.60;90.70;;;;;;10366153;28;20416;-65
2023/08/12 23:56:46;;;;;;;5.43;3.28;;;22.50;90.70;;;;;;10379421;28;20915;-63
